Time,TemperatureF,DewpointF,PressureIn,WindDirection,WindDirectionDegrees,WindSpeedMPH,WindSpeedGustMPH,Humidity,HourlyPrecipIn,Conditions,Clouds,dailyrainin,SoftwareType,DateUTC
2013-10-31 00:12:00,44.0,33.0,29.91,East,101,0.0,0.0,66,0.00,,,0.01,,2013-10-31 06:12:00,
2013-10-31 00:22:00,44.0,33.0,29.90,SSW,208,0.0,0.0,64,0.00,,,0.01,,2013-10-31 06:22:00,
2013-10-31 00:42:00,43.0,31.0,29.91,South,176,0.0,1.0,62,0.00,,,0.01,,2013-10-31 06:42:00,
2013-10-31 00:53:00,42.0,30.0,29.91,South,169,0.0,0.0,62,0.00,,,0.01,,2013-10-31 06:53:00,
2013-10-31 01:11:00,41.0,30.0,29.91,South,169,0.0,0.0,64,0.00,,,0.01,,2013-10-31 07:11:00,
2013-10-31 02:12:00,42.0,26.0,29.95,NE,56,0.0,1.0,53,0.00,,,0.01,,2013-10-31 08:12:00,
2013-10-31 02:22:00,41.0,27.0,29.96,NE,56,0.0,0.0,58,0.00,,,0.01,,2013-10-31 08:22:00,
2013-10-31 02:42:00,40.0,25.0,29.96,NNE,27,0.0,2.0,55,0.00,,,0.01,,2013-10-31 08:42:00,
2013-10-31 02:52:00,40.0,26.0,29.97,NNE,26,0.0,1.0,57,0.00,,,0.01,,2013-10-31 08:52:00,
2013-10-31 03:11:00,40.0,28.0,29.97,NNE,28,0.0,1.0,61,0.00,,,0.01,,2013-10-31 09:11:00,
2013-10-31 03:22:00,39.0,28.0,29.97,NNE,29,0.0,0.0,64,0.00,,,0.01,,2013-10-31 09:22:00,
2013-10-31 03:43:00,38.0,27.0,29.97,NNE,29,0.0,0.0,64,0.00,,,0.01,,2013-10-31 09:43:00,
2013-10-31 03:53:00,38.0,28.0,29.98,North,7,0.0,0.0,67,0.00,,,0.01,,2013-10-31 09:53:00,
2013-10-31 04:13:00,38.0,27.0,29.98,North,8,0.0,1.0,65,0.00,,,0.01,,2013-10-31 10:13:00,
2013-10-31 04:42:00,38.0,28.0,29.98,North,7,0.0,0.0,67,0.00,,,0.01,,2013-10-31 10:42:00,
2013-10-31 04:53:00,36.0,28.0,29.99,SSW,206,0.0,1.0,71,0.00,,,0.01,,2013-10-31 10:53:00,
2013-10-31 05:12:00,34.0,27.0,30.00,SSW,201,0.0,1.0,74,0.00,,,0.01,,2013-10-31 11:12:00,
2013-10-31 05:21:00,34.0,27.0,30.01,SSW,201,0.0,0.0,76,0.00,,,0.01,,2013-10-31 11:21:00,
2013-10-31 05:42:00,33.0,27.0,30.01,SSW,201,0.0,0.0,78,0.00,,,0.01,,2013-10-31 11:42:00,
2013-10-31 05:52:00,33.0,28.0,30.01,SSW,201,0.0,0.0,80,0.00,,,0.01,,2013-10-31 11:52:00,
2013-10-31 06:12:00,32.0,27.0,30.02,SSW,201,0.0,0.0,81,0.00,,,0.01,,2013-10-31 12:12:00,
2013-10-31 06:22:00,32.0,27.0,30.02,SSW,201,0.0,0.0,83,0.00,,,0.01,,2013-10-31 12:22:00,
2013-10-31 06:42:00,32.0,27.0,30.03,SSW,201,0.0,0.0,82,0.00,,,0.01,,2013-10-31 12:42:00,
2013-10-31 06:52:00,31.0,26.0,30.04,SSW,201,0.0,0.0,83,0.00,,,0.01,,2013-10-31 12:52:00,
2013-10-31 07:11:00,31.0,27.0,30.05,SSW,201,0.0,0.0,84,0.00,,,0.01,,2013-10-31 13:11:00,
2013-10-31 07:22:00,31.0,27.0,30.05,SSW,201,0.0,0.0,84,0.00,,,0.01,,2013-10-31 13:22:00,
2013-10-31 07:42:00,30.0,26.0,30.06,SSW,201,0.0,0.0,85,0.00,,,0.01,,2013-10-31 13:42:00,
2013-10-31 07:52:00,30.0,26.0,30.07,SSW,201,0.0,0.0,85,0.00,,,0.01,,2013-10-31 13:52:00,
2013-10-31 08:11:00,31.0,27.0,30.08,SSW,201,0.0,0.0,86,0.00,,,0.01,,2013-10-31 14:11:00,
2013-10-31 08:21:00,31.0,27.0,30.08,SSW,201,0.0,0.0,86,0.00,,,0.01,,2013-10-31 14:21:00,
2013-10-31 08:42:00,32.0,27.0,30.08,SSW,201,0.0,1.0,83,0.00,,,0.01,,2013-10-31 14:42:00,
2013-10-31 08:52:00,34.0,27.0,30.08,NE,37,0.0,2.0,76,0.00,,,0.01,,2013-10-31 14:52:00,
2013-10-31 09:11:00,36.0,27.0,30.09,North,359,0.0,2.0,69,0.00,,,0.01,,2013-10-31 15:11:00,
2013-10-31 10:23:00,48.0,29.0,30.09,ENE,66,0.0,1.0,47,0.00,,,0.01,,2013-10-31 16:23:00,
2013-10-31 10:53:00,51.0,29.0,30.09,SSW,207,0.0,3.0,42,0.00,,,0.01,,2013-10-31 16:53:00,
2013-10-31 11:12:00,53.0,31.0,30.09,NNE,29,0.0,1.0,42,0.00,,,0.01,,2013-10-31 17:12:00,
2013-10-31 11:22:00,55.0,28.0,30.08,NNW,337,0.0,3.0,35,0.00,,,0.01,,2013-10-31 17:22:00,
2013-10-31 11:43:00,56.0,28.0,30.08,ENE,75,0.0,4.0,34,0.00,,,0.01,,2013-10-31 17:43:00,
2013-10-31 11:52:00,58.0,28.0,30.07,NE,40,0.0,3.0,32,0.00,,,0.01,,2013-10-31 17:52:00,
2013-10-31 12:22:00,60.0,26.0,30.06,SSW,204,1.0,3.0,27,0.00,,,0.01,,2013-10-31 18:22:00,
2013-10-31 12:42:00,61.0,29.0,30.05,NE,49,1.0,3.0,29,0.00,,,0.01,,2013-10-31 18:42:00,
2013-10-31 12:52:00,61.0,29.0,30.04,WNW,294,0.0,4.0,30,0.00,,,0.01,,2013-10-31 18:52:00,
2013-10-31 13:21:00,64.0,27.0,30.02,NW,323,1.0,4.0,25,0.00,,,0.01,,2013-10-31 19:21:00,
2013-10-31 13:52:00,65.0,27.0,30.00,SSE,162,1.0,3.0,24,0.00,,,0.01,,2013-10-31 19:52:00,
2013-10-31 14:22:00,67.0,28.0,29.98,ESE,106,0.0,2.0,23,0.00,,,0.01,,2013-10-31 20:22:00,
2013-10-31 14:42:00,67.0,29.0,29.97,East,100,0.0,3.0,24,0.00,,,0.01,,2013-10-31 20:42:00,
2013-10-31 14:52:00,67.0,26.0,29.96,NW,316,0.0,3.0,21,0.00,,,0.01,,2013-10-31 20:52:00,
2013-10-31 15:11:00,67.0,25.0,29.95,West,263,1.0,-999.0,20,-99.99,,,-99.99,,2013-10-31 21:11:00,
2013-10-31 15:22:00,67.0,26.0,29.94,ENE,64,1.0,8.0,21,0.00,,,0.01,,2013-10-31 21:22:00,
2013-10-31 15:54:00,67.0,27.0,29.94,ESE,104,0.0,4.0,22,0.00,,,0.01,,2013-10-31 21:54:00,
2013-10-31 16:13:00,67.0,23.0,29.93,NW,318,1.0,4.0,19,0.00,,,0.01,,2013-10-31 22:13:00,
2013-10-31 16:24:00,67.0,28.0,29.93,SE,131,1.0,5.0,23,0.00,,,0.01,,2013-10-31 22:24:00,
2013-10-31 16:43:00,66.0,23.0,29.93,WNW,292,2.0,5.0,19,0.00,,,0.01,,2013-10-31 22:43:00,
2013-10-31 16:53:00,66.0,24.0,29.93,SW,225,1.0,9.0,20,0.00,,,0.01,,2013-10-31 22:53:00,
2013-10-31 17:22:00,65.0,25.0,29.92,NNW,336,0.0,4.0,22,0.00,,,0.01,,2013-10-31 23:22:00,
2013-10-31 17:43:00,64.0,23.0,29.92,East,84,0.0,5.0,21,0.00,,,0.01,,2013-10-31 23:43:00,
2013-10-31 17:53:00,64.0,24.0,29.92,ENE,72,0.0,3.0,22,0.00,,,0.01,,2013-10-31 23:53:00,
2013-10-31 18:11:00,63.0,22.0,29.91,ENE,66,0.0,5.0,21,0.00,,,0.01,,2013-11-01 00:11:00,
2013-10-31 18:21:00,63.0,22.0,29.92,South,183,0.0,3.0,21,0.00,,,0.01,,2013-11-01 00:21:00,
2013-10-31 18:42:00,62.0,23.0,29.92,ENE,73,0.0,4.0,22,0.00,,,0.00,,2013-11-01 00:42:00,
2013-10-31 18:52:00,61.0,21.0,29.93,ESE,102,0.0,6.0,21,0.00,,,0.00,,2013-11-01 00:52:00,
2013-10-31 19:12:00,59.0,22.0,29.93,NE,38,0.0,2.0,24,0.00,,,0.00,,2013-11-01 01:12:00,
2013-10-31 19:22:00,57.0,24.0,29.94,East,82,0.0,2.0,28,0.00,,,0.00,,2013-11-01 01:22:00,
2013-10-31 21:22:00,52.0,23.0,29.96,ESE,116,0.0,1.0,32,0.00,,,0.00,,2013-11-01 03:22:00,
2013-10-31 21:45:00,52.0,20.0,29.97,NE,40,1.0,3.0,28,0.00,,,0.00,,2013-11-01 03:45:00,
2013-10-31 21:54:00,54.0,21.0,29.97,SE,146,0.0,2.0,27,0.00,,,0.00,,2013-11-01 03:54:00,
2013-10-31 22:14:00,53.0,22.0,29.97,WSW,252,0.0,2.0,30,0.00,,,0.00,,2013-11-01 04:14:00,
2013-10-31 22:24:00,55.0,21.0,29.98,WSW,255,0.0,4.0,26,0.00,,,0.00,,2013-11-01 04:24:00,
2013-10-31 22:54:00,55.0,21.0,29.99,WNW,285,4.0,14.0,26,0.00,,,0.00,,2013-11-01 04:54:00,
2013-10-31 23:12:00,56.0,20.0,29.99,South,186,1.0,4.0,24,0.00,,,0.00,,2013-11-01 05:12:00,
2013-10-31 23:23:00,57.0,20.0,30.00,ENE,75,0.0,5.0,23,0.00,,,0.00,,2013-11-01 05:23:00,
2013-10-31 23:42:00,56.0,24.0,30.00,NW,318,1.0,7.0,29,0.00,,,0.00,,2013-11-01 05:42:00,
2013-10-31 23:53:00,53.0,22.0,30.00,NNE,12,0.0,3.0,29,0.00,,,0.00,,2013-11-01 05:53:00,